Tropical Cyclones
[Index]
Season 2020-2021 Tropical Cyclone IMOGEN Track Map
Season 2020-2021 Summaries: [BoM-AU]
<<- Previous TC | BoM 2020-2021 Season | Next TC ->>

click for intensity scale information  Lat/long Grid: Show Hide

 Date Labels: Show Hide

Bureau of Meteorology Tropical Cyclone Data

Name: IMOGEN

01 Jan 2021 00:00 UTC to 04 Jan 2021 03:00 UTC

    date/time    lat    long    hPa   cat  kts
2021-01-01 00   13.8   136.4   1005         15          
2021-01-01 03   13.9   136.5   1003         20          
2021-01-01 12   14.4   136.7   1002         20          
2021-01-01 18   14.4   136.8   1000         20          
2021-01-02 00   14.7   137.0   1000         20          
2021-01-02 03   14.8   137.1   1001         25          
2021-01-02 06   15.2   137.4   1000         25          
2021-01-02 12   15.4   138.0   1000         25          
2021-01-02 15   15.6   138.2    999         30          
2021-01-02 18   15.9   138.5    998         30          
2021-01-02 21   16.2   139.0    998         30          
2021-01-03 00   16.3   139.2    997         30          
2021-01-03 01   16.4   139.3    997         30          
2021-01-03 02   16.5   139.4    994    1    30          
2021-01-03 03   16.6   139.4    993    1    30          
2021-01-03 06   16.6   139.6    991    1    35          
2021-01-03 09   16.9   140.3    991    1    35          
2021-01-03 12   17.4   140.9    994    1    35          
2021-01-03 15   17.5   141.3    990    1    45          
2021-01-03 18   17.6   141.7    991    1    40          
2021-01-03 21   17.7   142.3    992    1    35          
2021-01-04 00   17.7   142.4    998         30          
2021-01-04 03   17.8   142.5    998         25          
Winds are 10-min average.

Tropical cyclone tracks developed by Michael Bath using data from the Bureau of Meteorology and Google Maps.


Document: tropical_cyclone_imogen.htm
Updated: 20 April 2021
[Australian Severe Weather index] [Copyright Notice] [Email Contacts] [Search This Site] [Privacy Policy]


Main Index Home Page Stock Weather Photos Extreme Storms Discussion Storm News and Storm Chasing Reports Tropical Cyclones / Hurricanes / Typhoons Weather Data and Links Wild Fires / Bushfires Weather Observation Techniques Weather Picture Catalogue Tornado Pictures and Reports Stock Video Footage and DVDs for sale